Time,TemperatureF,DewpointF,PressureIn,WindDirection,WindDirectionDegrees,WindSpeedMPH,WindSpeedGustMPH,Humidity,HourlyPrecipIn,Conditions,Clouds,dailyrainin,SoftwareType,DateUTC
2013-08-04 00:00:00,76.6,76.0,30.11,WNW,302,0.0,0.0,98,0.00,RA,,0.00,WeatherDisplay:10.37,2013-08-04 04:00:00,
2013-08-04 00:01:00,76.6,76.0,30.11,WNW,302,0.0,0.0,98,0.00,RA,,0.00,WeatherDisplay:10.37,2013-08-04 04:01:00,
2013-08-04 00:02:00,76.6,75.7,30.11,WNW,302,0.0,0.0,97,0.00,RA,,0.00,WeatherDisplay:10.37,2013-08-04 04:02:00,
2013-08-04 00:07:00,76.4,75.5,30.11,WNW,302,0.0,0.0,97,0.00,RA,,0.00,WeatherDisplay:10.37,2013-08-04 04:07:00,
2013-08-04 00:12:00,76.3,75.4,30.11,WNW,302,0.0,0.0,97,0.00,CLR,,0.00,WeatherDisplay:10.37,2013-08-04 04:12:00,
2013-08-04 00:17:00,76.3,75.7,30.10,WNW,302,0.0,0.0,98,0.00,CLR,,0.00,WeatherDisplay:10.37,2013-08-04 04:17:00,
2013-08-04 00:22:00,76.3,75.4,30.10,WNW,302,0.0,0.0,97,0.00,CLR,,0.00,WeatherDisplay:10.37,2013-08-04 04:22:00,
2013-08-04 00:27:00,76.2,75.3,30.10,WNW,302,0.0,0.0,97,0.00,CLR,,0.00,WeatherDisplay:10.37,2013-08-04 04:27:00,
2013-08-04 00:32:00,76.2,75.3,30.10,WNW,302,0.0,0.0,97,0.00,CLR,,0.00,WeatherDisplay:10.37,2013-08-04 04:32:00,
2013-08-04 00:37:00,76.3,75.4,30.09,WNW,302,0.0,0.0,97,0.00,CLR,,0.00,WeatherDisplay:10.37,2013-08-04 04:37:00,
2013-08-04 00:42:00,76.3,75.4,30.09,WNW,302,0.0,0.0,97,0.00,CLR,,0.00,WeatherDisplay:10.37,2013-08-04 04:42:00,
2013-08-04 00:47:00,76.4,75.8,30.10,WNW,302,0.0,0.0,98,0.00,CLR,,0.00,WeatherDisplay:10.37,2013-08-04 04:47:00,
2013-08-04 00:52:00,76.4,75.8,30.10,WNW,302,0.0,0.0,98,0.00,CLR,,0.00,WeatherDisplay:10.37,2013-08-04 04:52:00,
2013-08-04 00:57:00,76.2,75.3,30.10,WNW,302,0.0,0.0,97,0.00,CLR,,0.00,WeatherDisplay:10.37,2013-08-04 04:57:00,
2013-08-04 01:02:00,76.2,75.3,30.09,WNW,302,0.0,0.0,97,0.00,CLR,,0.00,WeatherDisplay:10.37,2013-08-04 05:02:00,
2013-08-04 01:07:00,76.3,75.4,30.09,WNW,302,0.0,0.0,97,0.00,CLR,,0.00,WeatherDisplay:10.37,2013-08-04 05:07:00,
2013-08-04 01:12:00,76.2,75.3,30.09,WNW,302,0.0,0.0,97,0.00,CLR,,0.00,WeatherDisplay:10.37,2013-08-04 05:12:00,
2013-08-04 01:17:00,76.2,75.6,30.09,WNW,302,0.0,0.0,98,0.00,CLR,,0.00,WeatherDisplay:10.37,2013-08-04 05:17:00,
2013-08-04 01:22:00,76.4,75.8,30.09,WNW,302,0.0,0.0,98,0.00,CLR,,0.00,WeatherDisplay:10.37,2013-08-04 05:22:00,
2013-08-04 01:27:00,76.4,75.8,30.09,WNW,302,0.0,0.0,98,0.00,CLR,,0.00,WeatherDisplay:10.37,2013-08-04 05:27:00,
2013-08-04 01:32:00,76.4,75.8,30.09,WNW,302,0.0,0.0,98,0.00,CLR,,0.00,WeatherDisplay:10.37,2013-08-04 05:32:00,
2013-08-04 01:37:00,76.3,75.4,30.08,WNW,302,0.0,0.0,97,0.00,CLR,,0.00,WeatherDisplay:10.37,2013-08-04 05:37:00,
2013-08-04 01:42:00,76.2,75.6,30.08,WNW,302,0.0,0.0,98,0.00,CLR,,0.00,WeatherDisplay:10.37,2013-08-04 05:42:00,
2013-08-04 01:47:00,76.2,75.6,30.08,WNW,302,0.0,0.0,98,0.00,CLR,,0.00,WeatherDisplay:10.37,2013-08-04 05:47:00,
2013-08-04 01:52:00,76.3,75.7,30.08,WNW,302,0.0,0.0,98,0.00,CLR,,0.00,WeatherDisplay:10.37,2013-08-04 05:52:00,
2013-08-04 01:57:00,76.3,75.7,30.08,WNW,302,0.0,0.0,98,0.00,CLR,,0.00,WeatherDisplay:10.37,2013-08-04 05:57:00,
2013-08-04 02:02:00,76.2,75.3,30.08,WNW,302,0.0,0.0,97,0.00,CLR,,0.00,WeatherDisplay:10.37,2013-08-04 06:02:00,
2013-08-04 02:07:00,76.1,75.2,30.07,WNW,302,0.0,0.0,97,0.00,CLR,,0.00,WeatherDisplay:10.37,2013-08-04 06:07:00,
2013-08-04 02:12:00,76.0,75.4,30.07,WNW,302,0.0,0.0,98,0.00,CLR,,0.00,WeatherDisplay:10.37,2013-08-04 06:12:00,
2013-08-04 02:17:00,76.2,75.6,30.07,WNW,302,0.0,0.0,98,0.00,CLR,,0.00,WeatherDisplay:10.37,2013-08-04 06:17:00,
2013-08-04 02:22:00,76.2,75.6,30.07,WNW,302,0.0,0.0,98,0.00,CLR,,0.00,WeatherDisplay:10.37,2013-08-04 06:22:00,
2013-08-04 02:27:00,76.0,75.1,30.07,WNW,302,0.0,0.0,97,0.00,CLR,,0.00,WeatherDisplay:10.37,2013-08-04 06:27:00,
2013-08-04 02:32:00,75.8,75.2,30.07,WNW,302,0.0,0.0,98,0.00,CLR,,0.00,WeatherDisplay:10.37,2013-08-04 06:32:00,
2013-08-04 02:37:00,75.9,75.3,30.06,WNW,302,0.0,0.0,98,0.00,CLR,,0.00,WeatherDisplay:10.37,2013-08-04 06:37:00,
2013-08-04 02:42:00,76.1,75.5,30.06,WNW,302,0.0,0.0,98,0.00,CLR,,0.00,WeatherDisplay:10.37,2013-08-04 06:42:00,
2013-08-04 02:47:00,76.0,75.4,30.06,WNW,302,0.0,0.0,98,0.00,CLR,,0.00,WeatherDisplay:10.37,2013-08-04 06:47:00,
2013-08-04 02:52:00,76.0,75.4,30.06,WNW,302,0.0,0.0,98,0.00,CLR,,0.00,WeatherDisplay:10.37,2013-08-04 06:52:00,
2013-08-04 02:57:00,75.9,75.3,30.06,WNW,302,0.0,0.0,98,0.00,CLR,,0.00,WeatherDisplay:10.37,2013-08-04 06:57:00,
2013-08-04 03:02:00,75.9,75.3,30.07,WNW,302,0.0,0.0,98,0.00,CLR,,0.00,WeatherDisplay:10.37,2013-08-04 07:02:00,
2013-08-04 03:08:00,75.8,75.2,30.07,WNW,302,0.0,0.0,98,0.00,CLR,,0.00,WeatherDisplay:10.37,2013-08-04 07:08:00,
2013-08-04 03:13:00,75.8,75.2,30.07,WNW,302,0.0,0.0,98,0.00,CLR,,0.00,WeatherDisplay:10.37,2013-08-04 07:13:00,
2013-08-04 03:18:00,75.8,75.2,30.07,WNW,302,0.0,0.0,98,0.00,CLR,,0.00,WeatherDisplay:10.37,2013-08-04 07:18:00,
2013-08-04 03:22:00,75.7,75.1,30.07,WNW,302,0.0,0.0,98,0.00,CLR,,0.00,WeatherDisplay:10.37,2013-08-04 07:22:00,
2013-08-04 03:28:00,75.8,75.2,30.07,WNW,302,0.0,0.0,98,0.00,CLR,,0.00,WeatherDisplay:10.37,2013-08-04 07:28:00,
2013-08-04 03:33:00,75.8,75.2,30.07,WNW,302,0.0,0.0,98,0.00,CLR,,0.00,WeatherDisplay:10.37,2013-08-04 07:33:00,
2013-08-04 03:38:00,75.9,75.3,30.07,WNW,302,0.0,0.0,98,0.00,CLR,,0.00,WeatherDisplay:10.37,2013-08-04 07:38:00,
2013-08-04 03:43:00,76.0,75.4,30.07,WNW,302,0.0,0.0,98,0.00,CLR,,0.00,WeatherDisplay:10.37,2013-08-04 07:43:00,
2013-08-04 03:48:00,76.1,75.5,30.06,WNW,302,0.0,0.0,98,0.00,CLR,,0.00,WeatherDisplay:10.37,2013-08-04 07:48:00,
2013-08-04 03:53:00,76.1,75.5,30.06,WNW,302,0.0,0.0,98,0.00,CLR,,0.00,WeatherDisplay:10.37,2013-08-04 07:53:00,
2013-08-04 03:58:00,76.2,75.6,30.06,WNW,302,0.0,0.0,98,0.00,CLR,,0.00,WeatherDisplay:10.37,2013-08-04 07:58:00,
2013-08-04 04:03:00,76.1,75.5,30.06,WNW,302,0.0,0.0,98,0.00,CLR,,0.00,WeatherDisplay:10.37,2013-08-04 08:03:00,
2013-08-04 04:07:00,76.0,75.4,30.06,WNW,302,0.0,0.0,98,0.00,CLR,,0.00,WeatherDisplay:10.37,2013-08-04 08:07:00,
2013-08-04 04:12:00,76.1,75.5,30.06,WNW,302,0.0,0.0,98,0.00,CLR,,0.00,WeatherDisplay:10.37,2013-08-04 08:12:00,
2013-08-04 04:18:00,76.4,75.8,30.06,WNW,302,0.0,0.0,98,0.00,CLR,,0.00,WeatherDisplay:10.37,2013-08-04 08:18:00,
2013-08-04 04:23:00,76.5,75.9,30.05,WNW,302,0.0,0.0,98,0.00,CLR,,0.00,WeatherDisplay:10.37,2013-08-04 08:23:00,
2013-08-04 04:28:00,76.2,75.6,30.05,WNW,302,0.0,0.0,98,0.00,CLR,,0.00,WeatherDisplay:10.37,2013-08-04 08:28:00,
2013-08-04 04:33:00,76.1,75.5,30.05,WNW,302,0.0,0.0,98,0.00,CLR,,0.00,WeatherDisplay:10.37,2013-08-04 08:33:00,
2013-08-04 04:38:00,76.0,75.4,30.05,WNW,302,0.0,0.0,98,0.00,CLR,,0.00,WeatherDisplay:10.37,2013-08-04 08:38:00,
2013-08-04 04:43:00,76.0,75.4,30.05,WNW,302,0.0,0.0,98,0.00,CLR,,0.00,WeatherDisplay:10.37,2013-08-04 08:43:00,
2013-08-04 04:48:00,75.9,75.3,30.06,WNW,302,0.0,0.0,98,0.00,CLR,,0.00,WeatherDisplay:10.37,2013-08-04 08:48:00,
2013-08-04 04:53:00,76.0,75.4,30.06,WNW,302,0.0,0.0,98,0.00,CLR,,0.00,WeatherDisplay:10.37,2013-08-04 08:53:00,
2013-08-04 04:58:00,76.1,75.5,30.06,WNW,302,0.0,0.0,98,0.00,CLR,,0.00,WeatherDisplay:10.37,2013-08-04 08:58:00,
2013-08-04 05:03:00,76.1,75.5,30.06,WNW,302,0.0,0.0,98,0.00,CLR,,0.00,WeatherDisplay:10.37,2013-08-04 09:03:00,
2013-08-04 05:08:00,76.0,75.4,30.06,WNW,302,0.0,0.0,98,0.00,CLR,,0.00,WeatherDisplay:10.37,2013-08-04 09:08:00,
2013-08-04 05:13:00,76.0,75.4,30.05,WNW,302,0.0,0.0,98,0.00,CLR,,0.00,WeatherDisplay:10.37,2013-08-04 09:13:00,
2013-08-04 05:18:00,76.0,75.4,30.05,WNW,302,0.0,0.0,98,0.00,CLR,,0.00,WeatherDisplay:10.37,2013-08-04 09:18:00,
2013-08-04 05:23:00,75.9,75.3,30.05,WNW,302,0.0,0.0,98,0.00,CLR,,0.00,WeatherDisplay:10.37,2013-08-04 09:23:00,
2013-08-04 05:28:00,75.8,75.2,30.05,WNW,302,0.0,0.0,98,0.00,CLR,,0.00,WeatherDisplay:10.37,2013-08-04 09:28:00,
2013-08-04 05:33:00,75.8,75.2,30.06,WNW,302,0.0,0.0,98,0.00,CLR,,0.00,WeatherDisplay:10.37,2013-08-04 09:33:00,
2013-08-04 05:38:00,75.7,75.1,30.06,WNW,302,0.0,0.0,98,0.00,CLR,,0.00,WeatherDisplay:10.37,2013-08-04 09:38:00,
2013-08-04 05:43:00,75.8,75.2,30.06,WNW,302,0.0,0.0,98,0.00,CLR,,0.00,WeatherDisplay:10.37,2013-08-04 09:43:00,
2013-08-04 05:48:00,75.9,75.3,30.06,WNW,302,0.0,0.0,98,0.00,CLR,,0.00,WeatherDisplay:10.37,2013-08-04 09:48:00,
2013-08-04 05:53:00,75.9,75.3,30.06,WNW,302,0.0,0.0,98,0.00,CLR,,0.00,WeatherDisplay:10.37,2013-08-04 09:53:00,
2013-08-04 05:58:00,75.8,75.2,30.06,WNW,302,0.0,0.0,98,0.00,CLR,,0.00,WeatherDisplay:10.37,2013-08-04 09:58:00,
2013-08-04 06:03:00,75.9,75.3,30.06,WNW,302,0.0,0.0,98,0.00,CLR,,0.00,WeatherDisplay:10.37,2013-08-04 10:03:00,
2013-08-04 06:08:00,76.0,75.4,30.06,WNW,302,0.0,0.0,98,0.00,CLR,,0.00,WeatherDisplay:10.37,2013-08-04 10:08:00,
2013-08-04 06:13:00,76.3,75.7,30.06,WNW,302,0.0,0.0,98,0.00,CLR,,0.00,WeatherDisplay:10.37,2013-08-04 10:13:00,
2013-08-04 06:18:00,76.4,75.8,30.06,WNW,302,0.0,0.0,98,0.00,CLR,,0.00,WeatherDisplay:10.37,2013-08-04 10:18:00,
2013-08-04 06:23:00,76.4,75.8,30.07,WNW,302,0.0,0.0,98,0.00,CLR,,0.00,WeatherDisplay:10.37,2013-08-04 10:23:00,
2013-08-04 06:28:00,76.3,75.7,30.07,WNW,302,0.0,0.0,98,0.00,CLR,,0.00,WeatherDisplay:10.37,2013-08-04 10:28:00,
2013-08-04 06:33:00,76.4,75.8,30.07,WNW,302,0.0,0.0,98,0.00,CLR,,0.00,WeatherDisplay:10.37,2013-08-04 10:33:00,
2013-08-04 06:38:00,76.5,75.9,30.07,WNW,302,0.0,0.0,98,0.00,CLR,,0.00,WeatherDisplay:10.37,2013-08-04 10:38:00,
2013-08-04 06:43:00,76.4,75.8,30.07,WNW,302,0.0,0.0,98,0.00,CLR,,0.00,WeatherDisplay:10.37,2013-08-04 10:43:00,
2013-08-04 06:48:00,76.4,75.8,30.07,WNW,302,0.0,0.0,98,0.00,CLR,,0.00,WeatherDisplay:10.37,2013-08-04 10:48:00,
2013-08-04 06:53:00,76.2,75.6,30.07,WNW,302,0.0,0.0,98,0.00,CLR,,0.00,WeatherDisplay:10.37,2013-08-04 10:53:00,
2013-08-04 06:58:00,75.9,75.3,30.07,WNW,302,0.0,0.0,98,0.00,CLR,,0.00,WeatherDisplay:10.37,2013-08-04 10:58:00,
2013-08-04 07:03:00,76.0,75.4,30.07,WNW,302,0.0,0.0,98,0.00,CLR,,0.00,WeatherDisplay:10.37,2013-08-04 11:03:00,
2013-08-04 07:08:00,76.0,75.4,30.07,WNW,302,0.0,0.0,98,0.00,CLR,,0.00,WeatherDisplay:10.37,2013-08-04 11:08:00,
2013-08-04 07:13:00,76.0,75.4,30.07,WNW,302,0.0,0.0,98,0.00,CLR,,0.00,WeatherDisplay:10.37,2013-08-04 11:13:00,
2013-08-04 07:18:00,76.0,75.4,30.07,WNW,302,0.0,0.0,98,0.00,CLR,,0.00,WeatherDisplay:10.37,2013-08-04 11:18:00,
2013-08-04 07:23:00,76.1,75.5,30.07,WNW,302,0.0,0.0,98,0.00,CLR,,0.00,WeatherDisplay:10.37,2013-08-04 11:23:00,
2013-08-04 07:28:00,76.1,75.5,30.07,WNW,302,0.0,0.0,98,0.00,CLR,,0.00,WeatherDisplay:10.37,2013-08-04 11:28:00,
2013-08-04 07:33:00,76.4,75.8,30.08,WNW,302,0.0,0.0,98,0.00,CLR,,0.00,WeatherDisplay:10.37,2013-08-04 11:33:00,
2013-08-04 07:38:00,76.6,76.0,30.08,WNW,302,0.0,0.0,98,0.00,CLR,,0.00,WeatherDisplay:10.37,2013-08-04 11:38:00,
2013-08-04 07:43:00,76.6,76.0,30.08,WNW,302,0.0,0.0,98,0.00,CLR,,0.00,WeatherDisplay:10.37,2013-08-04 11:43:00,
2013-08-04 07:48:00,76.7,76.1,30.08,WNW,302,0.0,0.0,98,0.00,CLR,,0.00,WeatherDisplay:10.37,2013-08-04 11:48:00,
2013-08-04 07:53:00,76.8,76.2,30.08,WNW,302,0.0,0.0,98,0.00,CLR,,0.00,WeatherDisplay:10.37,2013-08-04 11:53:00,
2013-08-04 07:58:00,76.9,76.3,30.08,WNW,302,0.0,0.0,98,0.00,CLR,,0.00,WeatherDisplay:10.37,2013-08-04 11:58:00,
2013-08-04 08:03:00,77.1,76.5,30.08,WNW,302,0.0,0.0,98,0.00,CLR,,0.00,WeatherDisplay:10.37,2013-08-04 12:03:00,
2013-08-04 08:08:00,77.1,76.5,30.08,WNW,302,0.0,0.0,98,0.00,CLR,,0.00,WeatherDisplay:10.37,2013-08-04 12:08:00,
2013-08-04 08:13:00,77.2,76.6,30.08,WNW,302,0.0,0.0,98,0.00,CLR,,0.00,WeatherDisplay:10.37,2013-08-04 12:13:00,
2013-08-04 08:19:00,77.3,76.7,30.08,WNW,302,0.0,0.0,98,0.00,CLR,,0.00,WeatherDisplay:10.37,2013-08-04 12:19:00,
2013-08-04 08:24:00,77.5,76.9,30.08,WNW,302,0.0,0.0,98,0.00,CLR,,0.00,WeatherDisplay:10.37,2013-08-04 12:24:00,
2013-08-04 08:28:00,77.9,77.3,30.08,WNW,302,0.0,0.0,98,0.00,CLR,,0.00,WeatherDisplay:10.37,2013-08-04 12:28:00,
2013-08-04 08:34:00,78.1,77.5,30.08,WNW,302,0.0,0.0,98,0.00,CLR,,0.00,WeatherDisplay:10.37,2013-08-04 12:34:00,
2013-08-04 08:39:00,78.3,77.7,30.08,WNW,302,0.0,0.0,98,0.00,CLR,,0.00,WeatherDisplay:10.37,2013-08-04 12:39:00,
2013-08-04 08:44:00,78.5,77.9,30.08,WNW,302,0.0,0.0,98,0.00,CLR,,0.00,WeatherDisplay:10.37,2013-08-04 12:44:00,
2013-08-04 08:49:00,78.8,78.2,30.08,WNW,302,0.0,0.0,98,0.00,CLR,,0.00,WeatherDisplay:10.37,2013-08-04 12:49:00,
2013-08-04 08:54:00,78.9,78.0,30.08,WNW,302,0.0,0.0,97,0.00,CLR,,0.00,WeatherDisplay:10.37,2013-08-04 12:54:00,
2013-08-04 08:59:00,79.1,77.9,30.09,WNW,302,0.0,0.0,96,0.00,CLR,,0.00,WeatherDisplay:10.37,2013-08-04 12:59:00,
2013-08-04 09:04:00,79.4,78.2,30.08,WNW,302,0.0,0.0,96,0.00,CLR,,0.00,WeatherDisplay:10.37,2013-08-04 13:04:00,
2013-08-04 09:09:00,79.8,78.2,30.09,WNW,302,0.3,0.0,95,0.00,CLR,,0.00,WeatherDisplay:10.37,2013-08-04 13:09:00,
2013-08-04 09:13:00,80.3,78.4,30.09,WNW,302,0.0,0.0,94,0.00,CLR,,0.00,WeatherDisplay:10.37,2013-08-04 13:13:00,
2013-08-04 09:19:00,80.8,78.6,30.09,WNW,302,0.0,0.0,93,0.00,CLR,,0.00,WeatherDisplay:10.37,2013-08-04 13:19:00,
2013-08-04 09:24:00,81.4,78.9,30.09,WNW,302,0.0,0.0,92,0.00,CLR,,0.00,WeatherDisplay:10.37,2013-08-04 13:24:00,
2013-08-04 09:29:00,81.6,78.4,30.09,WNW,302,0.2,1.2,90,0.00,CLR,,0.00,WeatherDisplay:10.37,2013-08-04 13:29:00,
2013-08-04 09:34:00,81.8,78.2,30.10,WNW,302,0.0,0.0,89,0.00,CLR,,0.00,WeatherDisplay:10.37,2013-08-04 13:34:00,
2013-08-04 09:39:00,81.9,78.0,30.10,WNW,302,0.0,0.0,88,0.00,CLR,,0.00,WeatherDisplay:10.37,2013-08-04 13:39:00,
2013-08-04 09:44:00,81.9,78.3,30.10,WNW,302,0.2,1.2,89,0.00,CLR,,0.00,WeatherDisplay:10.37,2013-08-04 13:44:00,
2013-08-04 09:49:00,82.1,78.2,30.10,WNW,302,1.0,1.2,88,0.00,CLR,,0.00,WeatherDisplay:10.37,2013-08-04 13:49:00,
2013-08-04 09:54:00,82.4,78.8,30.10,WNW,302,0.3,1.2,89,0.00,CLR,,0.00,WeatherDisplay:10.37,2013-08-04 13:54:00,
2013-08-04 09:59:00,82.8,78.9,30.09,WNW,302,0.7,3.5,88,0.00,CLR,,0.00,WeatherDisplay:10.37,2013-08-04 13:59:00,
2013-08-04 10:04:00,83.2,78.9,30.09,WNW,302,0.4,2.3,87,0.00,CLR,,0.00,WeatherDisplay:10.37,2013-08-04 14:04:00,
2013-08-04 10:09:00,83.5,78.9,30.09,WNW,302,0.7,2.3,86,0.00,CLR,,0.00,WeatherDisplay:10.37,2013-08-04 14:09:00,
2013-08-04 10:14:00,83.6,77.9,30.09,WNW,302,0.0,0.0,83,0.00,CLR,,0.00,WeatherDisplay:10.37,2013-08-04 14:14:00,
2013-08-04 10:19:00,84.0,78.3,30.09,WNW,302,0.1,1.2,83,0.00,CLR,,0.00,WeatherDisplay:10.37,2013-08-04 14:19:00,
2013-08-04 10:24:00,84.5,78.8,30.09,WNW,302,0.4,3.5,83,0.00,CLR,,0.00,WeatherDisplay:10.37,2013-08-04 14:24:00,
2013-08-04 10:29:00,84.9,79.5,30.09,WNW,302,0.2,1.2,84,0.00,CLR,,0.00,WeatherDisplay:10.37,2013-08-04 14:29:00,
2013-08-04 10:34:00,85.2,78.3,30.09,WNW,302,0.0,0.0,80,0.00,CLR,,0.00,WeatherDisplay:10.37,2013-08-04 14:34:00,
2013-08-04 10:39:00,85.6,78.7,30.09,WNW,302,1.8,3.5,80,0.00,CLR,,0.00,WeatherDisplay:10.37,2013-08-04 14:39:00,
2013-08-04 10:44:00,86.1,78.8,30.09,WNW,302,1.9,3.5,79,0.00,CLR,,0.00,WeatherDisplay:10.37,2013-08-04 14:44:00,
2013-08-04 10:49:00,86.5,78.0,30.09,WNW,302,1.4,3.5,76,0.00,CLR,,0.00,WeatherDisplay:10.37,2013-08-04 14:49:00,
2013-08-04 10:54:00,86.7,78.2,30.09,WNW,302,2.7,3.5,76,0.00,CLR,,0.00,WeatherDisplay:10.37,2013-08-04 14:54:00,
2013-08-04 10:59:00,86.9,78.8,30.09,WNW,302,1.0,2.3,77,0.00,CLR,,0.00,WeatherDisplay:10.37,2013-08-04 14:59:00,
2013-08-04 11:04:00,87.3,78.0,30.09,WNW,302,0.4,2.0,74,0.00,CLR,,0.00,WeatherDisplay:10.37,2013-08-04 15:04:00,
2013-08-04 11:09:00,87.5,77.8,30.09,WNW,302,0.5,1.2,73,0.00,CLR,,0.00,WeatherDisplay:10.37,2013-08-04 15:09:00,
2013-08-04 11:14:00,87.9,78.6,30.09,WNW,302,0.3,1.2,74,0.00,CLR,,0.00,WeatherDisplay:10.37,2013-08-04 15:14:00,
2013-08-04 11:19:00,88.1,77.1,30.09,SW,235,1.6,3.5,70,0.00,CLR,,0.00,WeatherDisplay:10.37,2013-08-04 15:19:00,
2013-08-04 11:24:00,88.2,75.4,30.09,SW,236,0.1,1.2,66,0.00,CLR,,0.00,WeatherDisplay:10.37,2013-08-04 15:24:00,
2013-08-04 11:29:00,88.3,77.3,30.08,SSW,212,1.1,4.0,70,0.00,CLR,,0.00,WeatherDisplay:10.37,2013-08-04 15:29:00,
2013-08-04 11:34:00,88.5,76.1,30.09,SSW,205,3.6,5.8,67,0.00,CLR,,0.00,WeatherDisplay:10.37,2013-08-04 15:34:00,
2013-08-04 11:39:00,88.8,78.2,30.08,West,259,0.8,2.3,71,0.00,CLR,,0.00,WeatherDisplay:10.37,2013-08-04 15:39:00,
2013-08-04 11:44:00,88.8,77.3,30.08,SSW,209,0.6,1.2,69,0.00,CLR,,0.00,WeatherDisplay:10.37,2013-08-04 15:44:00,
2013-08-04 11:49:00,88.6,76.2,30.08,South,175,1.4,3.5,67,0.00,CLR,,0.00,WeatherDisplay:10.37,2013-08-04 15:49:00,
2013-08-04 11:54:00,88.6,76.2,30.08,SE,133,1.9,3.5,67,0.00,CLR,,0.00,WeatherDisplay:10.37,2013-08-04 15:54:00,
2013-08-04 11:59:00,88.6,78.0,30.08,SSW,205,0.2,3.5,71,0.00,CLR,,0.00,WeatherDisplay:10.37,2013-08-04 15:59:00,
2013-08-04 12:04:00,88.9,77.8,30.08,SSW,207,2.7,4.6,70,0.00,CLR,,0.00,WeatherDisplay:10.37,2013-08-04 16:04:00,
2013-08-04 12:09:00,89.2,77.3,30.08,WSW,252,0.2,1.2,68,0.00,CLR,,0.00,WeatherDisplay:10.37,2013-08-04 16:09:00,
2013-08-04 12:14:00,89.6,76.7,30.08,SW,229,4.2,5.0,66,0.00,CLR,,0.00,WeatherDisplay:10.37,2013-08-04 16:14:00,
2013-08-04 12:19:00,89.6,76.7,30.08,WSW,248,1.3,3.5,66,0.00,CLR,,0.00,WeatherDisplay:10.37,2013-08-04 16:19:00,
2013-08-04 12:24:00,89.5,75.7,30.07,WSW,248,0.5,1.2,64,0.00,CLR,,0.00,WeatherDisplay:10.37,2013-08-04 16:24:00,
2013-08-04 12:29:00,89.6,75.8,30.07,WSW,258,1.9,4.6,64,0.00,CLR,,0.00,WeatherDisplay:10.37,2013-08-04 16:29:00,
2013-08-04 12:34:00,89.7,75.9,30.07,SW,230,2.6,3.5,64,0.00,CLR,,0.00,WeatherDisplay:10.37,2013-08-04 16:34:00,
2013-08-04 12:39:00,90.2,75.9,30.07,WSW,255,3.4,4.6,63,0.00,CLR,,0.00,WeatherDisplay:10.37,2013-08-04 16:39:00,
2013-08-04 12:44:00,90.5,76.7,30.06,SW,225,2.1,4.0,64,0.00,CLR,,0.00,WeatherDisplay:10.37,2013-08-04 16:44:00,
2013-08-04 12:49:00,90.8,77.4,30.06,WNW,294,1.4,3.5,65,0.00,CLR,,0.00,WeatherDisplay:10.37,2013-08-04 16:49:00,
2013-08-04 12:54:00,90.6,76.7,30.06,WSW,252,0.9,4.6,64,0.00,CLR,,0.00,WeatherDisplay:10.37,2013-08-04 16:54:00,
2013-08-04 12:59:00,90.7,76.4,30.06,WSW,250,1.7,5.8,63,0.00,CLR,,0.00,WeatherDisplay:10.37,2013-08-04 16:59:00,
2013-08-04 13:04:00,90.5,77.1,30.06,West,259,1.9,3.5,65,0.00,CLR,,0.00,WeatherDisplay:10.37,2013-08-04 17:04:00,
2013-08-04 13:09:00,90.7,76.8,30.05,South,186,1.3,3.5,64,0.00,CLR,,0.00,WeatherDisplay:10.37,2013-08-04 17:09:00,
2013-08-04 13:14:00,90.0,76.2,30.05,SSW,205,0.8,0.0,64,0.00,CLR,,0.00,WeatherDisplay:10.37,2013-08-04 17:14:00,
2013-08-04 13:19:00,90.7,77.8,30.05,SW,228,4.3,5.8,66,0.00,CLR,,0.00,WeatherDisplay:10.37,2013-08-04 17:19:00,
2013-08-04 13:25:00,90.9,77.0,30.05,South,178,2.1,4.6,64,0.00,CLR,,0.00,WeatherDisplay:10.37,2013-08-04 17:25:00,
2013-08-04 13:30:00,91.2,76.8,30.05,SW,221,4.2,8.1,63,0.00,CLR,,0.00,WeatherDisplay:10.37,2013-08-04 17:30:00,
2013-08-04 13:35:00,91.6,77.7,30.05,WSW,246,4.6,4.6,64,0.00,CLR,,0.00,WeatherDisplay:10.37,2013-08-04 17:35:00,
2013-08-04 13:39:00,92.0,75.6,30.04,SW,233,0.6,2.3,59,0.00,CLR,,0.00,WeatherDisplay:10.37,2013-08-04 17:39:00,
2013-08-04 13:45:00,92.0,76.6,30.04,SW,234,1.6,3.5,61,0.00,CLR,,0.00,WeatherDisplay:10.37,2013-08-04 17:45:00,
2013-08-04 13:50:00,92.2,75.8,30.04,SW,232,2.6,4.6,59,0.00,CLR,,0.00,WeatherDisplay:10.37,2013-08-04 17:50:00,
2013-08-04 13:55:00,92.0,75.1,30.04,SW,223,1.5,2.3,58,0.00,CLR,,0.00,WeatherDisplay:10.37,2013-08-04 17:55:00,
2013-08-04 14:00:00,91.6,76.2,30.03,SW,231,1.3,2.3,61,0.00,CLR,,0.00,WeatherDisplay:10.37,2013-08-04 18:00:00,
2013-08-04 14:05:00,91.3,76.0,30.03,WSW,237,4.3,5.8,61,0.00,CLR,,0.00,WeatherDisplay:10.37,2013-08-04 18:05:00,
2013-08-04 14:09:00,91.6,77.2,30.03,SW,217,2.3,4.6,63,0.00,CLR,,0.00,WeatherDisplay:10.37,2013-08-04 18:09:00,
2013-08-04 14:15:00,92.0,77.1,30.03,SW,218,4.1,4.6,62,0.00,CLR,,0.00,WeatherDisplay:10.37,2013-08-04 18:15:00,
2013-08-04 14:20:00,91.9,77.0,30.03,SW,223,4.6,4.6,62,0.00,CLR,,0.00,WeatherDisplay:10.37,2013-08-04 18:20:00,
2013-08-04 14:25:00,92.1,77.7,30.03,SW,236,6.9,10.4,63,0.00,CLR,,0.00,WeatherDisplay:10.37,2013-08-04 18:25:00,
2013-08-04 14:31:00,92.4,76.0,30.02,SW,225,2.9,3.5,59,0.00,CLR,,0.00,WeatherDisplay:10.37,2013-08-04 18:31:00,
2013-08-04 14:36:00,92.2,75.3,30.02,SSW,207,0.1,2.3,58,0.00,CLR,,0.00,WeatherDisplay:10.37,2013-08-04 18:36:00,
2013-08-04 14:41:00,91.9,76.5,30.02,SSW,211,5.8,6.9,61,0.00,CLR,,0.00,WeatherDisplay:10.37,2013-08-04 18:41:00,
2013-08-04 14:46:00,92.2,75.8,30.02,SSW,207,3.5,5.8,59,0.00,CLR,,0.00,WeatherDisplay:10.37,2013-08-04 18:46:00,
2013-08-04 14:50:00,92.5,77.1,30.01,West,266,1.5,4.6,61,0.00,CLR,,0.00,WeatherDisplay:10.37,2013-08-04 18:50:00,
2013-08-04 14:56:00,92.8,75.8,30.01,WSW,237,6.7,8.1,58,0.00,CLR,,0.00,WeatherDisplay:10.37,2013-08-04 18:56:00,
2013-08-04 15:01:00,93.1,76.6,30.01,West,281,2.5,6.9,59,0.00,CLR,,0.00,WeatherDisplay:10.37,2013-08-04 19:01:00,
2013-08-04 15:06:00,93.1,75.6,30.01,SSW,196,5.7,8.1,57,0.00,CLR,,0.00,WeatherDisplay:10.37,2013-08-04 19:06:00,
2013-08-04 15:11:00,92.9,75.9,30.00,SW,227,2.6,3.5,58,0.00,CLR,,0.00,WeatherDisplay:10.37,2013-08-04 19:11:00,
2013-08-04 15:16:00,92.7,73.6,30.00,SW,234,2.3,5.8,54,0.00,CLR,,0.00,WeatherDisplay:10.37,2013-08-04 19:16:00,
2013-08-04 15:21:00,92.7,75.2,30.00,SSW,202,5.2,6.9,57,0.00,CLR,,0.00,WeatherDisplay:10.37,2013-08-04 19:21:00,
2013-08-04 15:26:00,92.7,74.2,30.00,WSW,246,3.2,4.6,55,0.00,CLR,,0.00,WeatherDisplay:10.37,2013-08-04 19:26:00,
2013-08-04 15:31:00,93.1,75.1,30.00,WSW,244,2.7,4.6,56,0.00,CLR,,0.00,WeatherDisplay:10.37,2013-08-04 19:31:00,
2013-08-04 15:36:00,93.4,74.3,29.99,SW,230,3.2,3.5,54,0.00,CLR,,0.00,WeatherDisplay:10.37,2013-08-04 19:36:00,
2013-08-04 15:41:00,93.6,75.0,29.99,WNW,286,0.9,3.5,55,0.00,CLR,,0.00,WeatherDisplay:10.37,2013-08-04 19:41:00,
2013-08-04 15:46:00,93.8,74.6,29.99,SW,236,4.7,5.8,54,0.00,CLR,,0.00,WeatherDisplay:10.37,2013-08-04 19:46:00,
2013-08-04 15:50:00,93.7,72.8,29.99,SW,223,0.1,0.0,51,0.00,CLR,,0.00,WeatherDisplay:10.37,2013-08-04 19:50:00,
2013-08-04 15:55:00,93.5,73.8,29.99,SW,223,3.2,4.6,53,0.00,CLR,,0.00,WeatherDisplay:10.37,2013-08-04 19:55:00,
2013-08-04 16:00:00,93.6,74.5,29.99,West,273,4.0,5.8,54,0.00,CLR,,0.00,WeatherDisplay:10.37,2013-08-04 20:00:00,
2013-08-04 16:06:00,93.4,74.3,29.99,SSE,165,3.8,5.8,54,0.00,CLR,,0.00,WeatherDisplay:10.37,2013-08-04 20:06:00,
2013-08-04 16:11:00,93.4,74.3,29.99,SW,236,2.4,5.8,54,0.00,CLR,,0.00,WeatherDisplay:10.37,2013-08-04 20:11:00,
2013-08-04 16:16:00,93.9,75.3,29.99,WSW,240,5.5,6.9,55,0.00,CLR,,0.00,WeatherDisplay:10.37,2013-08-04 20:16:00,
2013-08-04 16:21:00,93.9,76.4,29.98,WSW,254,1.5,3.5,57,0.00,CLR,,0.00,WeatherDisplay:10.37,2013-08-04 20:21:00,
2013-08-04 16:26:00,93.6,76.1,29.98,SW,224,2.4,4.6,57,0.00,CLR,,0.00,WeatherDisplay:10.37,2013-08-04 20:26:00,
2013-08-04 16:31:00,93.9,74.2,29.98,West,268,3.6,5.8,53,0.00,CLR,,0.00,WeatherDisplay:10.37,2013-08-04 20:31:00,
2013-08-04 16:36:00,94.2,74.4,29.98,WSW,250,2.0,3.5,53,0.00,CLR,,0.00,WeatherDisplay:10.37,2013-08-04 20:36:00,
2013-08-04 16:41:00,94.3,74.0,29.98,SW,236,5.2,9.2,52,0.00,CLR,,0.00,WeatherDisplay:10.37,2013-08-04 20:41:00,
2013-08-04 16:46:00,94.2,74.4,29.98,SSW,204,4.5,6.9,53,0.00,CLR,,0.00,WeatherDisplay:10.37,2013-08-04 20:46:00,
2013-08-04 16:51:00,94.4,74.1,29.99,West,265,4.4,6.9,52,0.00,CLR,,0.00,WeatherDisplay:10.37,2013-08-04 20:51:00,
2013-08-04 16:56:00,94.3,75.1,29.99,SSW,209,0.8,2.3,54,0.00,CLR,,0.00,WeatherDisplay:10.37,2013-08-04 20:56:00,
2013-08-04 17:01:00,94.1,75.5,29.98,SW,223,5.6,6.9,55,0.00,CLR,,0.00,WeatherDisplay:10.37,2013-08-04 21:01:00,
2013-08-04 17:06:00,94.0,74.8,29.98,SW,228,3.9,6.9,54,0.00,CLR,,0.00,WeatherDisplay:10.37,2013-08-04 21:06:00,
2013-08-04 17:11:00,94.0,74.3,29.98,SW,236,3.6,4.6,53,0.00,CLR,,0.00,WeatherDisplay:10.37,2013-08-04 21:11:00,
2013-08-04 17:16:00,93.7,74.5,29.98,WSW,240,3.0,3.5,54,0.00,CLR,,0.00,WeatherDisplay:10.37,2013-08-04 21:16:00,
2013-08-04 17:21:00,93.6,75.0,29.97,WSW,241,4.4,6.9,55,0.00,CLR,,0.00,WeatherDisplay:10.37,2013-08-04 21:21:00,
2013-08-04 17:26:00,93.6,75.0,29.97,West,272,2.8,4.6,55,0.00,CLR,,0.00,WeatherDisplay:10.37,2013-08-04 21:26:00,
2013-08-04 17:32:00,93.1,75.1,29.98,WSW,254,1.8,2.3,56,0.00,CLR,,0.00,WeatherDisplay:10.37,2013-08-04 21:32:00,
2013-08-04 17:37:00,92.8,75.3,29.99,West,265,2.2,3.5,57,0.00,CLR,,0.00,WeatherDisplay:10.37,2013-08-04 21:37:00,
2013-08-04 17:42:00,92.3,74.3,29.99,SW,223,4.8,8.1,56,0.00,CLR,,0.00,WeatherDisplay:10.37,2013-08-04 21:42:00,
2013-08-04 17:47:00,91.9,74.0,29.99,SW,227,2.6,4.6,56,0.00,CLR,,0.00,WeatherDisplay:10.37,2013-08-04 21:47:00,
2013-08-04 17:49:00,91.6,73.1,29.99,WSW,254,4.6,8.1,55,0.00,CLR,,0.00,WeatherDisplay:10.37,2013-08-04 21:49:00,
2013-08-04 17:54:00,91.3,73.4,29.99,SW,234,4.0,4.6,56,0.00,CLR,,0.00,WeatherDisplay:10.37,2013-08-04 21:54:00,
2013-08-04 17:59:00,90.9,73.0,29.99,West,262,2.4,5.8,56,0.00,CLR,,0.00,WeatherDisplay:10.37,2013-08-04 21:59:00,
2013-08-04 18:04:00,90.6,73.3,29.99,WSW,240,1.8,3.5,57,0.00,CLR,,0.00,WeatherDisplay:10.37,2013-08-04 22:04:00,
2013-08-04 18:09:00,90.5,73.2,29.99,West,259,0.1,3.5,57,0.00,CLR,,0.00,WeatherDisplay:10.37,2013-08-04 22:09:00,
2013-08-04 18:14:00,90.3,74.0,29.99,West,259,1.4,3.5,59,0.00,CLR,,0.00,WeatherDisplay:10.37,2013-08-04 22:14:00,
2013-08-04 18:19:00,90.1,74.8,30.00,WNW,288,5.2,8.1,61,0.00,CLR,,0.00,WeatherDisplay:10.37,2013-08-04 22:19:00,
2013-08-04 18:25:00,89.0,75.7,30.00,WNW,302,6.4,10.4,65,0.00,CLR,,0.00,WeatherDisplay:10.37,2013-08-04 22:25:00,
2013-08-04 18:30:00,87.7,74.9,30.01,West,273,6.7,10.4,66,0.00,CLR,,0.00,WeatherDisplay:10.37,2013-08-04 22:30:00,
2013-08-04 18:35:00,86.7,75.3,30.01,WNW,292,8.4,10.4,69,0.00,CLR,,0.00,WeatherDisplay:10.37,2013-08-04 22:35:00,
2013-08-04 18:40:00,86.2,76.5,30.02,WNW,293,8.3,11.5,73,0.01,RA,,0.02,WeatherDisplay:10.37,2013-08-04 22:40:00,
2013-08-04 18:45:00,84.7,76.7,30.01,NW,317,0.6,3.5,77,0.15,RA,,0.15,WeatherDisplay:10.37,2013-08-04 22:45:00,
2013-08-04 18:50:00,83.3,76.5,30.01,NNW,340,3.3,6.0,80,0.15,RA,,0.15,WeatherDisplay:10.37,2013-08-04 22:50:00,
2013-08-04 18:55:00,82.1,75.7,30.01,NNW,342,4.2,8.1,81,0.15,,,0.15,WeatherDisplay:10.37,2013-08-04 22:55:00,
2013-08-04 18:59:00,81.2,75.5,30.01,NNW,340,2.5,3.5,83,0.15,CLR,,0.15,WeatherDisplay:10.37,2013-08-04 22:59:00,
2013-08-04 19:05:00,80.7,75.4,30.01,NW,309,3.0,5.0,84,0.15,CLR,,0.15,WeatherDisplay:10.37,2013-08-04 23:05:00,
2013-08-04 19:10:00,80.4,75.8,30.02,NW,325,2.6,4.0,86,0.15,CLR,,0.15,WeatherDisplay:10.37,2013-08-04 23:10:00,
2013-08-04 19:15:00,80.4,76.2,30.03,NW,322,2.1,2.3,87,0.15,CLR,,0.15,WeatherDisplay:10.37,2013-08-04 23:15:00,
2013-08-04 19:20:00,80.4,76.5,30.02,NNE,14,1.4,3.5,88,0.15,CLR,,0.15,WeatherDisplay:10.37,2013-08-04 23:20:00,
2013-08-04 19:24:00,80.5,76.6,30.03,NNE,19,3.3,5.8,88,0.15,CLR,,0.15,WeatherDisplay:10.37,2013-08-04 23:24:00,
2013-08-04 19:30:00,80.3,76.4,30.03,NNE,28,2.9,4.0,88,0.15,CLR,,0.15,WeatherDisplay:10.37,2013-08-04 23:30:00,
2013-08-04 19:35:00,80.3,76.1,30.03,North,355,1.4,2.3,87,0.15,CLR,,0.15,WeatherDisplay:10.37,2013-08-04 23:35:00,
2013-08-04 19:40:00,80.0,75.4,30.03,NE,34,2.3,3.5,86,0.14,CLR,,0.15,WeatherDisplay:10.37,2013-08-04 23:40:00,
2013-08-04 19:45:00,79.8,74.9,30.02,NE,34,1.9,3.5,85,0.00,CLR,,0.15,WeatherDisplay:10.37,2013-08-04 23:45:00,
2013-08-04 19:50:00,79.8,75.6,30.02,NE,34,0.9,0.0,87,0.00,CLR,,0.15,WeatherDisplay:10.37,2013-08-04 23:50:00,
2013-08-04 19:55:00,79.7,75.8,30.02,NE,34,0.0,0.0,88,0.00,CLR,,0.15,WeatherDisplay:10.37,2013-08-04 23:55:00,
2013-08-04 20:00:00,79.6,75.7,30.02,NE,34,0.0,0.0,88,0.00,CLR,,0.15,WeatherDisplay:10.37,2013-08-05 00:00:00,
2013-08-04 20:05:00,79.7,76.5,30.02,NE,34,0.0,0.0,90,0.00,CLR,,0.15,WeatherDisplay:10.37,2013-08-05 00:05:00,
2013-08-04 20:10:00,79.4,76.2,30.02,NE,34,0.0,0.0,90,0.00,CLR,,0.15,WeatherDisplay:10.37,2013-08-05 00:10:00,
2013-08-04 20:15:00,79.1,76.2,30.02,NE,34,0.0,1.2,91,0.00,CLR,,0.15,WeatherDisplay:10.37,2013-08-05 00:15:00,
2013-08-04 20:20:00,78.5,75.3,30.03,NE,34,0.6,2.3,90,0.00,CLR,,0.15,WeatherDisplay:10.37,2013-08-05 00:20:00,
2013-08-04 20:25:00,78.6,76.1,30.03,NE,48,0.7,1.2,92,0.00,CLR,,0.15,WeatherDisplay:10.37,2013-08-05 00:25:00,
2013-08-04 20:30:00,78.7,76.5,30.03,NE,48,0.3,1.2,93,0.00,CLR,,0.15,WeatherDisplay:10.37,2013-08-05 00:30:00,
2013-08-04 20:35:00,78.6,76.1,30.03,NE,48,0.0,0.0,92,0.00,CLR,,0.15,WeatherDisplay:10.37,2013-08-05 00:35:00,
2013-08-04 20:40:00,78.8,76.6,30.02,NE,48,0.1,1.2,93,0.00,CLR,,0.15,WeatherDisplay:10.37,2013-08-05 00:40:00,
2013-08-04 20:45:00,78.8,76.6,30.03,NE,48,0.0,0.0,93,0.00,CLR,,0.15,WeatherDisplay:10.37,2013-08-05 00:45:00,
2013-08-04 20:50:00,79.0,77.1,30.03,NE,48,0.0,0.0,94,0.00,CLR,,0.15,WeatherDisplay:10.37,2013-08-05 00:50:00,
2013-08-04 20:55:00,78.8,76.6,30.03,NE,48,1.2,2.3,93,0.00,CLR,,0.15,WeatherDisplay:10.37,2013-08-05 00:55:00,
2013-08-04 21:00:00,78.5,76.0,30.03,NE,49,1.1,2.3,92,0.00,CLR,,0.15,WeatherDisplay:10.37,2013-08-05 01:00:00,
2013-08-04 21:05:00,78.4,75.9,30.03,NE,49,0.1,1.2,92,0.00,CLR,,0.15,WeatherDisplay:10.37,2013-08-05 01:05:00,
2013-08-04 21:10:00,78.5,76.3,30.03,NE,49,0.0,0.0,93,0.00,CLR,,0.15,WeatherDisplay:10.37,2013-08-05 01:10:00,
2013-08-04 21:15:00,78.7,76.5,30.03,NE,49,0.0,0.0,93,0.00,CLR,,0.15,WeatherDisplay:10.37,2013-08-05 01:15:00,
2013-08-04 21:20:00,78.6,76.4,30.03,NE,49,0.0,0.0,93,0.00,CLR,,0.15,WeatherDisplay:10.37,2013-08-05 01:20:00,
2013-08-04 21:25:00,78.6,76.4,30.03,NE,49,0.0,0.0,93,0.00,CLR,,0.15,WeatherDisplay:10.37,2013-08-05 01:25:00,
2013-08-04 21:30:00,78.6,76.4,30.03,NE,51,1.0,3.5,93,0.00,CLR,,0.15,WeatherDisplay:10.37,2013-08-05 01:30:00,
2013-08-04 21:35:00,78.4,75.9,30.03,NE,51,0.0,1.2,92,0.00,CLR,,0.15,WeatherDisplay:10.37,2013-08-05 01:35:00,
2013-08-04 21:40:00,78.5,76.3,30.04,NE,51,0.0,0.0,93,0.00,CLR,,0.15,WeatherDisplay:10.37,2013-08-05 01:40:00,
2013-08-04 21:45:00,78.6,76.7,30.04,NE,51,0.0,0.0,94,0.00,CLR,,0.15,WeatherDisplay:10.37,2013-08-05 01:45:00,
2013-08-04 21:50:00,78.2,76.0,30.04,NE,51,0.6,2.3,93,0.00,CLR,,0.15,WeatherDisplay:10.37,2013-08-05 01:50:00,
2013-08-04 21:55:00,78.3,76.1,30.04,NE,51,0.0,0.0,93,0.00,CLR,,0.15,WeatherDisplay:10.37,2013-08-05 01:55:00,
2013-08-04 22:00:00,78.3,76.1,30.04,NE,51,0.0,0.0,93,0.00,CLR,,0.15,WeatherDisplay:10.37,2013-08-05 02:00:00,
2013-08-04 22:05:00,78.5,76.6,30.05,NE,51,0.0,0.0,94,0.00,CLR,,0.15,WeatherDisplay:10.37,2013-08-05 02:05:00,
2013-08-04 22:10:00,78.6,76.7,30.04,NE,51,0.5,1.2,94,0.00,CLR,,0.15,WeatherDisplay:10.37,2013-08-05 02:10:00,
2013-08-04 22:15:00,78.2,76.0,30.04,NE,51,0.0,0.0,93,0.00,CLR,,0.15,WeatherDisplay:10.37,2013-08-05 02:15:00,
2013-08-04 22:20:00,78.1,75.9,30.04,NE,51,0.0,0.0,93,0.00,CLR,,0.15,WeatherDisplay:10.37,2013-08-05 02:20:00,
2013-08-04 22:25:00,78.2,76.0,30.05,NE,51,0.0,0.0,93,0.00,CLR,,0.15,WeatherDisplay:10.37,2013-08-05 02:25:00,
2013-08-04 22:30:00,78.2,76.0,30.05,NE,51,0.0,0.0,93,0.00,CLR,,0.15,WeatherDisplay:10.37,2013-08-05 02:30:00,
2013-08-04 22:35:00,78.4,76.5,30.05,NE,51,0.0,0.0,94,0.00,CLR,,0.15,WeatherDisplay:10.37,2013-08-05 02:35:00,
2013-08-04 22:40:00,78.5,76.6,30.05,NE,51,0.0,0.0,94,0.00,CLR,,0.15,WeatherDisplay:10.37,2013-08-05 02:40:00,
2013-08-04 22:45:00,78.4,76.5,30.05,NE,51,0.0,0.0,94,0.00,CLR,,0.15,WeatherDisplay:10.37,2013-08-05 02:45:00,
2013-08-04 22:50:00,78.2,76.3,30.04,NE,51,0.0,0.0,94,0.00,CLR,,0.15,WeatherDisplay:10.37,2013-08-05 02:50:00,
2013-08-04 22:55:00,78.1,76.2,30.05,NE,51,0.0,0.0,94,0.00,CLR,,0.15,WeatherDisplay:10.37,2013-08-05 02:55:00,
2013-08-04 23:00:00,78.4,76.8,30.04,NE,51,0.0,0.0,95,0.00,CLR,,0.15,WeatherDisplay:10.37,2013-08-05 03:00:00,
2013-08-04 23:05:00,78.4,76.8,30.04,NE,51,0.0,0.0,95,0.00,CLR,,0.15,WeatherDisplay:10.37,2013-08-05 03:05:00,
2013-08-04 23:10:00,78.4,76.8,30.04,NE,51,0.1,1.2,95,0.00,CLR,,0.15,WeatherDisplay:10.37,2013-08-05 03:10:00,
2013-08-04 23:16:00,78.4,76.8,30.04,NE,51,0.0,0.0,95,0.00,CLR,,0.15,WeatherDisplay:10.37,2013-08-05 03:16:00,
2013-08-04 23:21:00,78.1,76.6,30.04,NE,51,0.4,1.2,95,0.00,CLR,,0.15,WeatherDisplay:10.37,2013-08-05 03:21:00,
2013-08-04 23:26:00,77.8,76.3,30.04,NE,51,0.0,1.2,95,0.00,CLR,,0.15,WeatherDisplay:10.37,2013-08-05 03:26:00,
2013-08-04 23:31:00,77.8,76.3,30.04,NE,51,0.0,0.0,95,0.00,CLR,,0.15,WeatherDisplay:10.37,2013-08-05 03:31:00,
2013-08-04 23:35:00,77.8,76.3,30.04,NE,51,0.0,0.0,95,0.00,CLR,,0.15,WeatherDisplay:10.37,2013-08-05 03:35:00,
2013-08-04 23:41:00,77.9,76.4,30.04,NE,51,0.0,0.0,95,0.00,CLR,,0.15,WeatherDisplay:10.37,2013-08-05 03:41:00,
2013-08-04 23:46:00,77.8,76.3,30.04,NE,51,0.0,0.0,95,0.00,CLR,,0.15,WeatherDisplay:10.37,2013-08-05 03:46:00,
2013-08-04 23:51:00,77.7,76.2,30.04,NE,51,0.0,0.0,95,0.00,CLR,,0.15,WeatherDisplay:10.37,2013-08-05 03:51:00,
2013-08-04 23:55:00,77.6,76.1,30.04,NE,51,0.0,0.0,95,0.00,CLR,,0.15,WeatherDisplay:10.37,2013-08-05 03:55:00,